Time;durP1;ratioP1;P1;durP2;ratioP2;P2;SDS_P1;SDS_P2;PMS_P1;PMS_P2;Temp;Humidity;BMP_temperature;BMP_pressure;BME280_temperature;BME280_humidity;BME280_pressure;Samples;Min_cycle;Max_cycle;Signal;HPM_P1;HPM_P2
2022/06/06 00:00:04;;;;;;;3.47;2.78;;;16.00;26.20;;;;;;7391160;19;20018;-62
2022/06/06 00:02:36;;;;;;;4.63;2.72;;;15.90;26.50;;;;;;7369379;19;20346;-63
2022/06/06 00:05:08;;;;;;;3.90;2.80;;;15.90;26.90;;;;;;7358245;19;20089;-63
2022/06/06 00:07:40;;;;;;;3.10;2.80;;;15.80;26.80;;;;;;7367321;19;20502;-62
2022/06/06 00:10:11;;;;;;;5.78;2.90;;;15.80;26.90;;;;;;7368313;19;20099;-62
2022/06/06 00:12:41;;;;;;;5.97;3.15;;;15.90;27.40;;;;;;7364131;19;20014;-61
2022/06/06 00:15:14;;;;;;;4.63;3.17;;;15.80;27.40;;;;;;7361825;19;20623;-62
2022/06/06 00:17:46;;;;;;;3.47;2.60;;;15.80;27.50;;;;;;7390063;19;20098;-63
2022/06/06 00:20:17;;;;;;;3.45;2.50;;;15.80;27.50;;;;;;7368470;19;20018;-62
2022/06/06 00:22:47;;;;;;;4.65;2.70;;;15.80;27.50;;;;;;7365856;19;20006;-61
2022/06/06 00:25:17;;;;;;;4.75;2.67;;;15.80;27.60;;;;;;7360633;19;20014;-62
2022/06/06 00:27:47;;;;;;;3.55;3.13;;;15.70;27.50;;;;;;7367498;19;20025;-62
2022/06/06 00:30:19;;;;;;;3.53;2.65;;;15.70;28.20;;;;;;7368487;19;20022;-63
2022/06/06 00:35:37;;;;;;;4.68;2.95;;;15.60;28.20;;;;;;7364997;19;20073;-62
2022/06/06 00:38:07;;;;;;;5.15;3.00;;;15.60;28.10;;;;;;7367604;19;20035;-61
2022/06/06 00:40:37;;;;;;;5.03;3.15;;;15.60;29.10;;;;;;7367756;19;20002;-63
2022/06/06 00:43:07;;;;;;;4.80;3.28;;;15.60;29.50;;;;;;7360148;19;20014;-63
2022/06/06 00:45:40;;;;;;;3.10;2.80;;;15.60;29.50;;;;;;7363152;19;20363;-62
2022/06/06 00:48:22;;;;;;;3.80;3.00;;;15.60;29.30;;;;;;7365223;19;20021;-61
2022/06/06 00:51:03;;;;;;;4.70;3.10;;;15.60;29.20;;;;;;7388980;19;20024;-62
2022/06/06 00:53:39;;;;;;;4.43;3.17;;;15.60;29.10;;;;;;7359132;19;20105;-62
2022/06/06 00:56:19;;;;;;;5.45;3.47;;;15.60;29.60;;;;;;7363370;19;20010;-63
2022/06/06 00:58:52;;;;;;;5.57;3.30;;;15.60;29.80;;;;;;7366586;19;20033;-61
2022/06/06 01:01:23;;;;;;;4.07;3.42;;;15.50;29.60;;;;;;7368091;19;20007;-62
2022/06/06 01:03:59;;;;;;;4.75;3.22;;;15.50;29.70;;;;;;7358283;19;20006;-62
2022/06/06 01:06:33;;;;;;;4.70;3.22;;;15.50;29.70;;;;;;7365186;19;20455;-62
2022/06/06 01:09:05;;;;;;;4.85;3.25;;;15.50;30.00;;;;;;7388133;19;20348;-62
2022/06/06 01:11:37;;;;;;;3.50;3.20;;;15.50;30.30;;;;;;7366607;19;20420;-62
2022/06/06 01:14:09;;;;;;;4.70;3.25;;;15.50;30.30;;;;;;7358124;19;20126;-62
2022/06/06 01:16:47;;;;;;;6.10;3.55;;;15.50;30.50;;;;;;7363582;19;20017;-62
2022/06/06 01:19:38;;;;;;;6.03;3.10;;;15.50;30.70;;;;;;7366423;19;20055;-62
2022/06/06 01:22:36;;;;;;;5.22;3.88;;;15.50;31.20;;;;;;7363361;19;20007;-62
2022/06/06 01:25:32;;;;;;;6.30;3.90;;;15.40;31.30;;;;;;7353698;19;20018;-62
2022/06/06 01:28:06;;;;;;;5.63;3.22;;;15.40;31.40;;;;;;7365828;19;20126;-62
2022/06/06 01:30:43;;;;;;;4.72;3.25;;;15.40;31.90;;;;;;7365044;19;20019;-62
2022/06/06 01:33:15;;;;;;;5.18;3.38;;;15.40;32.10;;;;;;7358522;19;20485;-62
2022/06/06 01:35:48;;;;;;;3.78;3.38;;;15.40;32.10;;;;;;7384856;19;20097;-62
2022/06/06 01:38:22;;;;;;;5.60;3.55;;;15.40;33.20;;;;;;7365884;19;20105;-62
2022/06/06 01:41:00;;;;;;;5.75;3.60;;;15.30;33.10;;;;;;7365407;19;20087;-62
2022/06/06 01:43:40;;;;;;;5.97;3.90;;;15.30;33.10;;;;;;7358735;19;20292;-62
2022/06/06 01:46:19;;;;;;;5.68;3.55;;;15.30;33.10;;;;;;7361893;19;20071;-62
2022/06/06 01:48:51;;;;;;;4.00;3.05;;;15.30;33.90;;;;;;7365715;19;20014;-62
2022/06/06 01:51:24;;;;;;;5.53;3.60;;;15.20;34.10;;;;;;7366176;19;20018;-62
2022/06/06 01:53:54;;;;;;;6.43;4.03;;;15.20;36.10;;;;;;7378857;19;20022;-62
2022/06/06 01:56:28;;;;;;;4.85;3.85;;;15.20;36.40;;;;;;7362582;19;20018;-62
2022/06/06 01:58:59;;;;;;;5.33;3.63;;;15.10;36.00;;;;;;7366041;19;20419;-62
2022/06/06 02:01:31;;;;;;;5.68;4.00;;;15.20;36.40;;;;;;7380015;19;20267;-62
2022/06/06 02:04:01;;;;;;;6.78;3.78;;;15.20;37.00;;;;;;7369284;19;20014;-62
2022/06/06 02:06:31;;;;;;;5.88;3.90;;;15.10;37.00;;;;;;7376427;19;20083;-62
2022/06/06 02:09:01;;;;;;;5.10;4.00;;;15.10;37.30;;;;;;7401215;19;20057;-62
2022/06/06 02:11:31;;;;;;;5.55;3.72;;;15.10;37.30;;;;;;7377867;19;20010;-62
2022/06/06 02:14:00;;;;;;;5.53;3.83;;;15.10;37.90;;;;;;7370820;19;20010;-62
2022/06/06 02:16:33;;;;;;;4.50;4.10;;;15.10;37.90;;;;;;7376424;19;20073;-62
2022/06/06 02:19:04;;;;;;;5.57;4.20;;;15.10;38.00;;;;;;7378529;19;20023;-62
2022/06/06 02:21:34;;;;;;;8.82;4.03;;;15.00;38.30;;;;;;7377769;19;20014;-62
2022/06/06 02:24:04;;;;;;;4.03;3.63;;;15.00;38.70;;;;;;7392230;19;20028;-62
2022/06/06 02:26:34;;;;;;;4.70;4.20;;;15.00;39.30;;;;;;7375661;19;20007;-62
2022/06/06 02:29:05;;;;;;;5.45;4.18;;;15.00;40.20;;;;;;7378758;19;20078;-63
2022/06/06 02:31:37;;;;;;;5.15;3.90;;;14.90;40.30;;;;;;7378916;19;20019;-62
2022/06/06 02:34:09;;;;;;;5.80;4.20;;;14.90;40.60;;;;;;7368510;19;20024;-61
2022/06/06 02:36:38;;;;;;;6.88;4.40;;;14.90;41.30;;;;;;7374815;19;20028;-62
2022/06/06 02:39:15;;;;;;;6.10;4.60;;;14.90;41.40;;;;;;7378650;19;20012;-62
2022/06/06 02:41:44;;;;;;;4.50;3.88;;;14.90;42.10;;;;;;7400907;19;20014;-62
2022/06/06 02:44:14;;;;;;;6.45;4.65;;;14.90;42.00;;;;;;7368366;19;20010;-62
2022/06/06 02:46:47;;;;;;;7.07;4.28;;;14.90;41.40;;;;;;7374088;19;20007;-60
2022/06/06 02:49:16;;;;;;;6.38;4.38;;;14.90;41.30;;;;;;7376932;19;20346;-60
2022/06/06 02:51:46;;;;;;;9.07;4.32;;;14.70;42.50;;;;;;7378532;19;20019;-61
2022/06/06 02:54:16;;;;;;;6.47;4.38;;;14.70;44.30;;;;;;7369247;19;20361;-62
2022/06/06 02:56:46;;;;;;;5.75;4.55;;;14.60;45.30;;;;;;7396131;19;20021;-62
2022/06/06 02:59:19;;;;;;;5.90;4.18;;;14.50;46.80;;;;;;7376881;19;20020;-62
2022/06/06 03:01:52;;;;;;;5.43;4.10;;;14.50;48.30;;;;;;7377867;19;20015;-62
2022/06/06 03:04:22;;;;;;;7.95;4.75;;;14.40;49.30;;;;;;7369631;19;20007;-61
2022/06/06 03:07:00;;;;;;;9.00;4.50;;;14.40;50.90;;;;;;7375128;19;20042;-62
2022/06/06 03:09:41;;;;;;;5.15;4.65;;;14.40;52.60;;;;;;7377985;19;20096;-62
2022/06/06 03:12:26;;;;;;;5.20;4.65;;;14.40;53.30;;;;;;7368368;19;20030;-61
2022/06/06 03:15:23;;;;;;;7.53;4.90;;;14.30;53.60;;;;;;7380116;19;20010;-61
2022/06/06 03:21:13;;;;;;;6.28;4.72;;;14.40;54.00;;;;;;7369177;19;20014;-61
2022/06/06 03:24:10;;;;;;;8.90;5.05;;;14.40;53.40;;;;;;7362197;19;20006;-61
2022/06/06 03:26:53;;;;;;;7.47;5.30;;;14.50;53.40;;;;;;7365762;19;20018;-62
2022/06/06 03:29:33;;;;;;;6.30;4.97;;;14.50;53.10;;;;;;7369180;19;20017;-62
2022/06/06 03:32:08;;;;;;;5.70;5.20;;;14.60;50.90;;;;;;7368186;19;20014;-61
2022/06/06 03:34:49;;;;;;;6.35;5.28;;;14.60;49.60;;;;;;7360833;19;20062;-61
2022/06/06 03:37:27;;;;;;;6.05;4.90;;;14.60;49.40;;;;;;7366154;19;20017;-61
2022/06/06 03:40:04;;;;;;;6.03;4.90;;;14.50;49.50;;;;;;7369330;19;20018;-62
2022/06/06 03:42:38;;;;;;;8.57;5.47;;;14.60;49.10;;;;;;7369031;19;20470;-61
2022/06/06 03:45:18;;;;;;;6.20;4.65;;;14.90;46.50;;;;;;7361857;19;20018;-62
2022/06/06 03:47:59;;;;;;;5.60;5.00;;;15.30;42.00;;;;;;7389365;19;20061;-62
2022/06/06 03:50:43;;;;;;;7.65;4.68;;;15.80;34.10;;;;;;7368084;19;20370;-62
2022/06/06 03:53:17;;;;;;;6.70;4.20;;;16.20;27.10;;;;;;7360728;19;20014;-62
2022/06/06 03:56:03;;;;;;;17.13;4.53;;;16.60;23.10;;;;;;7363862;19;20090;-62
2022/06/06 03:58:35;;;;;;;4.68;3.92;;;16.60;19.50;;;;;;7368122;19;20028;-62
2022/06/06 04:01:09;;;;;;;8.48;4.10;;;16.10;23.70;;;;;;7367943;19;20014;-62
2022/06/06 04:03:40;;;;;;;4.13;3.55;;;16.10;26.20;;;;;;7360125;19;20042;-62
2022/06/06 04:06:13;;;;;;;7.30;4.32;;;17.00;18.00;;;;;;7365161;19;20142;-63
2022/06/06 04:08:43;;;;;;;4.68;3.50;;;17.30;14.50;;;;;;7389923;19;20025;-62
2022/06/06 04:11:25;;;;;;;4.55;3.92;;;17.60;12.80;;;;;;7367356;19;20082;-63
2022/06/06 04:14:10;;;;;;;6.68;4.00;;;18.10;7.60;;;;;;7357879;19;20014;-63
2022/06/06 04:16:51;;;;;;;5.07;3.45;;;18.50;6.80;;;;;;7365084;19;20014;-62
2022/06/06 04:19:32;;;;;;;7.18;3.53;;;19.20;2.80;;;;;;7368048;19;20119;-62
2022/06/06 04:22:14;;;;;;;4.90;3.08;;;19.50;1.00;;;;;;7368034;19;20502;-63
2022/06/06 04:25:03;;;;;;;6.43;3.60;;;19.20;1.00;;;;;;7359524;19;20011;-62
2022/06/06 04:27:44;;;;;;;3.15;2.80;;;19.40;1.00;;;;;;7366384;19;20094;-62
2022/06/06 04:30:23;;;;;;;4.07;3.20;;;19.70;1.00;;;;;;7368130;19;20014;-62
2022/06/06 04:33:03;;;;;;;5.47;2.88;;;19.60;1.00;;;;;;7384870;19;20021;-62
2022/06/06 04:35:39;;;;;;;4.25;3.20;;;19.00;1.00;;;;;;7364695;19;20126;-63
2022/06/06 04:38:22;;;;;;;4.85;3.38;;;18.80;1.00;;;;;;7366998;19;20082;-63
2022/06/06 04:40:58;;;;;;;3.80;3.10;;;19.90;1.00;;;;;;7367663;19;20017;-63
2022/06/06 04:43:34;;;;;;;4.60;3.20;;;21.30;1.00;;;;;;7361282;19;20014;-63
2022/06/06 04:46:11;;;;;;;5.32;3.10;;;21.30;1.00;;;;;;7362480;19;20043;-63
2022/06/06 04:48:43;;;;;;;4.38;3.00;;;21.00;1.00;;;;;;7366621;19;20085;-63
2022/06/06 04:51:15;;;;;;;6.80;2.92;;;21.20;1.00;;;;;;7366859;19;20162;-63
2022/06/06 04:53:51;;;;;;;5.15;2.78;;;22.90;1.00;;;;;;7377825;19;20043;-63
2022/06/06 04:56:22;;;;;;;5.38;3.22;;;22.50;1.00;;;;;;7363626;19;20011;-62
2022/06/06 04:58:56;;;;;;;4.78;2.67;;;23.50;1.00;;;;;;7366857;19;20011;-63
2022/06/06 05:01:26;;;;;;;5.30;2.70;;;22.20;1.00;;;;;;7367012;19;20781;-63
2022/06/06 05:03:57;;;;;;;5.30;3.15;;;20.90;1.00;;;;;;7358394;19;20014;-62
2022/06/06 05:06:58;;;;;;;5.85;3.58;;;20.00;1.00;;;;;;7364538;19;20019;-63
2022/06/06 05:09:47;;;;;;;3.97;2.90;;;20.40;1.00;;;;;;7366046;19;20015;-63
2022/06/06 05:12:33;;;;;;;4.35;2.72;;;20.40;1.00;;;;;;7366875;19;20024;-63
2022/06/06 05:15:18;;;;;;;3.85;3.10;;;21.40;1.00;;;;;;7379394;19;20070;-63
2022/06/06 05:18:19;;;;;;;3.15;2.70;;;21.40;1.00;;;;;;7365469;19;20016;-63
2022/06/06 05:21:03;;;;;;;4.47;2.90;;;22.00;1.00;;;;;;7366419;19;20468;-63
2022/06/06 05:24:03;;;;;;;3.50;2.83;;;22.40;1.00;;;;;;7358396;19;20360;-63
2022/06/06 05:27:01;;;;;;;3.47;3.15;;;21.40;1.00;;;;;;7363189;19;20015;-63
2022/06/06 05:29:50;;;;;;;3.95;2.83;;;20.10;1.00;;;;;;7366641;19;20018;-63
2022/06/06 05:32:40;;;;;;;6.35;2.92;;;19.60;1.00;;;;;;7366101;19;20073;-63
2022/06/06 05:35:20;;;;;;;3.97;3.40;;;18.70;2.40;;;;;;7354902;19;20034;-63
2022/06/06 05:37:57;;;;;;;6.15;3.35;;;18.50;3.90;;;;;;7364392;19;20352;-63
2022/06/06 05:40:36;;;;;;;5.57;3.42;;;18.00;8.40;;;;;;7365944;19;20012;-63
2022/06/06 05:43:26;;;;;;;6.10;3.50;;;18.70;5.50;;;;;;7358323;19;20006;-63
2022/06/06 05:46:06;;;;;;;6.00;3.17;;;18.70;2.80;;;;;;7361489;19;20010;-63
2022/06/06 05:49:08;;;;;;;3.72;2.55;;;18.60;4.50;;;;;;7363637;19;20474;-63
2022/06/06 05:51:48;;;;;;;3.90;3.30;;;19.20;2.70;;;;;;7364995;19;20720;-63
2022/06/06 05:54:32;;;;;;;5.25;3.13;;;20.30;1.00;;;;;;7356915;19;20096;-62
2022/06/06 05:57:20;;;;;;;4.32;3.22;;;20.80;1.00;;;;;;7382161;19;20025;-63
2022/06/06 06:00:10;;;;;;;3.92;3.05;;;20.10;1.00;;;;;;7361631;19;20020;-63
2022/06/06 06:03:22;;;;;;;4.00;2.88;;;20.70;1.00;;;;;;7362191;19;20022;-63
2022/06/06 06:06:01;;;;;;;5.72;3.20;;;20.70;1.00;;;;;;7360441;19;20021;-63
2022/06/06 06:08:50;;;;;;;7.40;3.58;;;20.10;1.00;;;;;;7361422;19;20025;-63
2022/06/06 06:11:43;;;;;;;3.92;3.03;;;19.60;1.00;;;;;;7364182;19;20014;-63
2022/06/06 06:14:24;;;;;;;4.60;3.10;;;19.90;1.00;;;;;;7355268;19;20073;-63
2022/06/06 06:17:00;;;;;;;4.82;3.30;;;19.40;1.00;;;;;;7359633;19;20455;-62
2022/06/06 06:19:46;;;;;;;4.43;3.00;;;19.40;4.00;;;;;;7364956;19;20117;-63
2022/06/06 06:22:16;;;;;;;3.28;2.97;;;19.40;2.90;;;;;;7364730;19;20011;-63
2022/06/06 06:24:47;;;;;;;4.95;3.17;;;19.50;2.50;;;;;;7354526;19;20007;-63
2022/06/06 06:27:18;;;;;;;7.43;3.55;;;19.40;3.10;;;;;;7359854;19;20010;-63
2022/06/06 06:29:48;;;;;;;5.75;3.60;;;19.40;2.90;;;;;;7385712;19;20065;-63
2022/06/06 06:32:32;;;;;;;5.93;3.28;;;19.90;1.00;;;;;;7363356;19;20459;-63
2022/06/06 06:35:14;;;;;;;4.70;3.08;;;20.50;1.00;;;;;;7356313;19;20014;-63
2022/06/06 06:37:57;;;;;;;8.65;3.75;;;21.40;1.00;;;;;;7361926;19;20089;-63
2022/06/06 06:40:41;;;;;;;4.35;2.95;;;21.60;1.00;;;;;;7364823;19;20011;-63
2022/06/06 06:43:16;;;;;;;5.07;3.03;;;20.90;1.00;;;;;;7356107;19;20011;-63
2022/06/06 06:45:51;;;;;;;6.45;3.65;;;21.20;1.00;;;;;;7358841;19;20014;-63
2022/06/06 06:48:27;;;;;;;4.80;3.10;;;21.00;1.00;;;;;;7367308;19;20536;-63
2022/06/06 06:51:02;;;;;;;4.25;2.95;;;20.80;1.00;;;;;;7393187;19;20015;-63
2022/06/06 06:53:56;;;;;;;4.03;3.63;;;20.50;1.00;;;;;;7363293;19;20062;-63
2022/06/06 06:56:41;;;;;;;6.78;3.80;;;19.70;1.00;;;;;;7366915;19;20021;-63
2022/06/06 06:59:20;;;;;;;5.60;3.30;;;19.80;1.00;;;;;;7369759;19;20022;-63
2022/06/06 07:10:44;;;;;;;3.22;2.90;;;21.20;1.00;;;;;;7369551;19;20007;-63
2022/06/06 07:13:30;;;;;;;4.45;3.53;;;20.80;1.00;;;;;;7363243;19;21606;-63
2022/06/06 07:16:09;;;;;;;4.13;2.95;;;20.80;1.00;;;;;;7366010;19;20031;-63
2022/06/06 07:18:41;;;;;;;4.55;3.40;;;21.00;1.00;;;;;;7370827;19;20377;-63
2022/06/06 07:21:15;;;;;;;4.35;3.20;;;21.10;1.00;;;;;;7369501;19;20018;-63
2022/06/06 07:23:46;;;;;;;5.25;3.55;;;20.90;1.00;;;;;;7384395;19;20093;-63
2022/06/06 07:26:17;;;;;;;6.00;3.20;;;20.70;1.00;;;;;;7366123;19;20027;-64
2022/06/06 07:28:47;;;;;;;4.43;3.42;;;20.60;1.00;;;;;;7368229;19;20015;-63
2022/06/06 07:31:25;;;;;;;5.25;3.45;;;20.90;1.00;;;;;;7369123;19;20105;-63
2022/06/06 07:34:12;;;;;;;4.13;3.42;;;21.00;1.00;;;;;;7360483;19;20018;-64
2022/06/06 07:37:02;;;;;;;4.00;3.60;;;21.40;1.00;;;;;;7367044;19;20081;-63
2022/06/06 07:39:44;;;;;;;5.30;3.00;;;21.20;1.00;;;;;;7369434;19;20011;-62
2022/06/06 07:42:38;;;;;;;4.40;3.05;;;21.40;1.00;;;;;;7366143;19;20037;-62
2022/06/06 07:45:19;;;;;;;6.20;3.65;;;21.40;1.00;;;;;;7363875;19;20010;-65
2022/06/06 07:48:05;;;;;;;6.53;3.90;;;20.70;1.00;;;;;;7389892;19;20019;-63
2022/06/06 07:50:41;;;;;;;4.85;3.33;;;21.00;1.00;;;;;;7368567;19;20007;-63
2022/06/06 07:53:21;;;;;;;5.25;3.28;;;20.60;1.00;;;;;;7363830;19;20009;-62
2022/06/06 07:55:57;;;;;;;6.15;3.40;;;21.30;1.00;;;;;;7364581;19;20485;-62
2022/06/06 07:58:31;;;;;;;4.22;3.70;;;21.00;1.00;;;;;;7366861;19;20002;-62
2022/06/06 08:01:11;;;;;;;15.55;3.30;;;21.00;1.00;;;;;;7368723;19;20086;-63
2022/06/06 08:03:50;;;;;;;4.70;3.58;;;21.50;1.00;;;;;;7365152;19;20032;-63
2022/06/06 08:06:29;;;;;;;3.95;3.20;;;21.50;1.00;;;;;;7363181;19;20019;-63
2022/06/06 08:09:25;;;;;;;4.32;3.15;;;21.80;1.00;;;;;;7389259;19;20506;-63
2022/06/06 08:12:19;;;;;;;4.32;3.03;;;22.40;1.00;;;;;;7368022;19;20017;-64
2022/06/06 08:15:12;;;;;;;6.72;3.10;;;22.60;1.00;;;;;;7360069;19;20043;-63
2022/06/06 08:18:03;;;;;;;6.05;2.88;;;22.50;1.00;;;;;;7366732;19;20006;-62
2022/06/06 08:20:45;;;;;;;6.03;2.78;;;23.00;1.00;;;;;;7368028;19;20011;-62
2022/06/06 08:23:16;;;;;;;4.63;3.05;;;22.50;1.00;;;;;;7363161;19;20010;-63
2022/06/06 08:25:50;;;;;;;4.22;3.03;;;22.30;1.00;;;;;;7363115;19;20014;-63
2022/06/06 08:28:22;;;;;;;4.57;3.00;;;22.30;1.00;;;;;;7365220;19;20014;-63
2022/06/06 08:30:52;;;;;;;2.75;2.55;;;22.90;1.00;;;;;;7368059;19;20011;-63
2022/06/06 08:33:22;;;;;;;3.25;2.70;;;22.90;1.00;;;;;;7363950;19;20026;-63
2022/06/06 08:36:07;;;;;;;4.03;2.80;;;22.70;1.00;;;;;;7384189;19;20391;-63
2022/06/06 08:38:47;;;;;;;6.75;4.28;;;22.90;1.00;;;;;;7364139;19;20765;-63
2022/06/06 08:41:48;;;;;;;4.07;2.90;;;22.90;1.00;;;;;;7366094;19;20010;-63
2022/06/06 08:44:29;;;;;;;3.28;2.97;;;23.10;1.00;;;;;;7358903;19;20009;-63
2022/06/06 08:47:07;;;;;;;4.30;3.10;;;22.40;1.00;;;;;;7364085;19;20074;-63
2022/06/06 08:53:17;;;;;;;4.18;3.13;;;22.30;1.00;;;;;;7365490;19;20044;-63
2022/06/06 08:56:22;;;;;;;4.38;2.72;;;22.90;1.00;;;;;;7363113;19;20310;-63
2022/06/06 08:59:24;;;;;;;2.90;2.60;;;23.00;1.00;;;;;;7363606;19;20010;-63
2022/06/06 09:02:18;;;;;;;2.80;2.60;;;21.60;1.00;;;;;;7365933;19;20497;-63
2022/06/06 09:05:16;;;;;;;3.15;2.78;;;22.20;1.00;;;;;;7358834;19;20505;-63
2022/06/06 09:08:14;;;;;;;3.75;2.80;;;22.20;1.00;;;;;;7363992;19;20078;-63
2022/06/06 09:11:00;;;;;;;3.08;2.63;;;22.00;1.00;;;;;;7365592;19;20015;-63
2022/06/06 09:14:18;;;;;;;3.40;2.60;;;21.40;1.00;;;;;;7359868;19;20006;-63
2022/06/06 09:17:21;;;;;;;3.20;2.33;;;21.90;1.00;;;;;;7363973;19;20081;-63
2022/06/06 09:20:30;;;;;;;2.78;2.30;;;21.90;1.00;;;;;;7364908;19;20011;-64
2022/06/06 09:23:21;;;;;;;3.80;2.90;;;22.00;1.00;;;;;;7359052;19;20667;-63
2022/06/06 09:26:01;;;;;;;4.07;2.40;;;21.90;1.00;;;;;;7361481;19;20028;-63
2022/06/06 09:29:02;;;;;;;3.80;2.85;;;22.30;1.00;;;;;;7362398;19;20010;-63
2022/06/06 09:31:54;;;;;;;4.10;2.50;;;23.00;1.00;;;;;;7366367;19;20536;-64
2022/06/06 09:35:01;;;;;;;3.78;2.72;;;23.00;1.00;;;;;;7354671;19;20010;-63
2022/06/06 09:37:52;;;;;;;5.32;2.42;;;23.00;1.00;;;;;;7364503;19;20010;-63
2022/06/06 09:40:36;;;;;;;2.83;2.22;;;23.30;1.00;;;;;;7366096;19;20123;-63
2022/06/06 09:43:11;;;;;;;4.38;2.30;;;23.80;1.00;;;;;;7357708;19;20383;-63
2022/06/06 09:45:58;;;;;;;2.60;1.90;;;22.60;1.00;;;;;;7361539;19;20018;-63
2022/06/06 09:48:59;;;;;;;1.83;1.60;;;22.90;1.00;;;;;;7364225;19;20032;-63
2022/06/06 09:52:02;;;;;;;2.83;1.70;;;23.40;1.00;;;;;;7364968;19;20025;-64
2022/06/06 10:01:56;;;;;;;3.03;2.72;;;23.10;1.00;;;;;;7365774;19;20014;-64
2022/06/06 10:05:02;;;;;;;2.28;1.73;;;23.20;1.00;;;;;;7355298;19;20035;-64
2022/06/06 10:08:02;;;;;;;1.90;1.52;;;23.80;1.00;;;;;;7363572;19;20015;-63
2022/06/06 10:11:14;;;;;;;2.80;1.60;;;24.00;1.00;;;;;;7364150;19;20021;-63
2022/06/06 10:14:01;;;;;;;4.03;1.80;;;24.30;1.00;;;;;;7358227;19;20017;-62
2022/06/06 10:16:51;;;;;;;6.22;1.77;;;23.60;1.00;;;;;;7359004;19;20010;-62
2022/06/06 10:19:52;;;;;;;2.33;1.75;;;24.10;1.00;;;;;;7364800;19;20002;-64
2022/06/06 10:22:46;;;;;;;1.60;1.50;;;24.10;1.00;;;;;;7370572;19;20070;-64
2022/06/06 10:25:34;;;;;;;4.07;1.88;;;23.70;1.00;;;;;;7366250;19;20034;-64
2022/06/06 10:28:23;;;;;;;5.28;1.70;;;24.40;1.00;;;;;;7370123;19;20027;-63
2022/06/06 10:31:05;;;;;;;3.42;1.85;;;24.10;1.00;;;;;;7368413;19;20018;-63
2022/06/06 10:34:03;;;;;;;3.40;1.58;;;23.90;1.00;;;;;;7365036;19;20010;-63
2022/06/06 10:36:46;;;;;;;2.55;2.13;;;23.80;1.00;;;;;;7367238;19;20015;-65
2022/06/06 10:39:41;;;;;;;2.45;2.00;;;22.90;1.00;;;;;;7369137;19;20052;-63
2022/06/06 10:42:49;;;;;;;2.95;1.80;;;22.00;1.00;;;;;;7371098;19;20014;-63
2022/06/06 10:45:27;;;;;;;3.08;1.80;;;22.00;1.00;;;;;;7363611;19;20031;-63
2022/06/06 10:48:27;;;;;;;4.18;2.25;;;22.30;1.00;;;;;;7391637;19;20011;-64
2022/06/06 10:54:16;;;;;;;3.38;2.13;;;22.30;1.00;;;;;;7365163;19;20283;-63
2022/06/06 10:57:20;;;;;;;2.08;1.83;;;22.80;1.00;;;;;;7366604;19;20538;-64
2022/06/06 11:00:20;;;;;;;2.92;1.95;;;23.30;1.00;;;;;;7370093;19;20325;-63
2022/06/06 11:03:12;;;;;;;3.15;2.00;;;23.10;1.00;;;;;;7367692;19;20086;-63
2022/06/06 11:06:26;;;;;;;3.35;2.00;;;24.10;1.00;;;;;;7366017;19;20011;-63
2022/06/06 11:09:15;;;;;;;4.93;1.95;;;24.40;1.00;;;;;;7367649;19;20011;-64
2022/06/06 11:12:17;;;;;;;2.15;1.77;;;23.40;1.00;;;;;;7370523;19;20025;-63
2022/06/06 11:14:47;;;;;;;2.75;1.88;;;23.40;1.00;;;;;;7361537;19;20011;-64
2022/06/06 11:17:48;;;;;;;2.65;2.05;;;23.50;1.00;;;;;;7365775;19;20010;-64
2022/06/06 11:20:44;;;;;;;2.30;1.90;;;23.70;1.00;;;;;;7369470;19;20466;-63
2022/06/06 11:23:43;;;;;;;2.28;1.98;;;24.00;1.00;;;;;;7365597;19;20010;-63
2022/06/06 11:26:42;;;;;;;1.80;1.65;;;24.10;1.00;;;;;;7363619;19;20621;-64
2022/06/06 11:29:50;;;;;;;2.90;1.55;;;24.10;1.00;;;;;;7368847;19;20734;-64
2022/06/06 11:32:56;;;;;;;1.80;1.70;;;24.50;1.00;;;;;;7365561;19;20019;-64
2022/06/06 11:35:34;;;;;;;3.38;1.80;;;24.30;1.00;;;;;;7364285;19;20007;-64
2022/06/06 11:38:30;;;;;;;2.10;1.67;;;23.40;1.00;;;;;;7367911;19;20086;-64
2022/06/06 11:41:25;;;;;;;2.25;1.55;;;23.30;1.00;;;;;;7368912;19;20007;-63
2022/06/06 11:44:18;;;;;;;1.77;1.52;;;23.70;1.00;;;;;;7363102;19;20099;-62
2022/06/06 11:47:19;;;;;;;3.42;1.90;;;23.90;1.00;;;;;;7366210;19;20014;-63
2022/06/06 11:50:16;;;;;;;1.95;1.50;;;24.10;1.00;;;;;;7368482;19;20017;-63
2022/06/06 11:53:15;;;;;;;3.50;1.70;;;24.70;1.00;;;;;;7366227;19;20020;-64
2022/06/06 11:56:18;;;;;;;2.10;1.20;;;24.50;1.00;;;;;;7365005;19;20014;-64
2022/06/06 11:59:32;;;;;;;3.75;1.45;;;24.20;1.00;;;;;;7364739;19;20392;-63
2022/06/06 12:02:32;;;;;;;2.40;1.70;;;24.10;1.00;;;;;;7369194;19;20016;-62
2022/06/06 12:05:41;;;;;;;1.98;1.60;;;24.50;1.00;;;;;;7360311;19;20018;-64
2022/06/06 12:08:42;;;;;;;2.03;1.40;;;24.40;1.00;;;;;;7367787;19;20507;-63
2022/06/06 12:11:49;;;;;;;2.33;1.50;;;24.10;1.00;;;;;;7365650;19;20523;-63
2022/06/06 12:14:34;;;;;;;3.42;1.73;;;23.40;1.00;;;;;;7359317;19;20006;-63
2022/06/06 12:17:14;;;;;;;2.08;1.52;;;22.90;1.00;;;;;;7365892;19;20014;-63
2022/06/06 12:20:10;;;;;;;2.35;1.67;;;22.40;1.00;;;;;;7367776;19;20040;-62
2022/06/06 12:22:59;;;;;;;3.33;1.65;;;22.20;1.00;;;;;;7364855;19;20010;-62
2022/06/06 12:25:49;;;;;;;1.90;1.60;;;21.80;1.00;;;;;;7363708;19;20014;-64
2022/06/06 12:29:09;;;;;;;2.40;1.73;;;21.80;1.00;;;;;;7367283;19;20006;-64
2022/06/06 12:31:47;;;;;;;5.70;1.80;;;22.00;1.00;;;;;;7365651;19;20015;-64
2022/06/06 12:34:24;;;;;;;2.95;1.77;;;22.20;1.00;;;;;;7359148;19;20029;-64
2022/06/06 12:37:02;;;;;;;4.03;1.50;;;22.40;1.00;;;;;;7365826;19;20530;-64
2022/06/06 12:39:43;;;;;;;2.25;1.60;;;22.30;1.00;;;;;;7366542;19;20579;-64
2022/06/06 12:42:23;;;;;;;2.90;1.70;;;22.40;1.00;;;;;;7367731;19;20078;-64
2022/06/06 12:45:26;;;;;;;3.10;1.33;;;23.10;1.00;;;;;;7378555;19;20011;-63
2022/06/06 12:48:09;;;;;;;4.63;1.50;;;23.40;1.00;;;;;;7366089;19;20019;-64
2022/06/06 12:50:50;;;;;;;1.73;1.33;;;23.60;1.00;;;;;;7366842;19;20003;-63
2022/06/06 12:54:02;;;;;;;2.95;1.40;;;22.80;1.00;;;;;;7361984;19;20446;-63
2022/06/06 12:56:48;;;;;;;4.22;1.73;;;22.80;1.00;;;;;;7362545;19;20025;-63
2022/06/06 12:59:38;;;;;;;1.85;1.20;;;22.90;1.00;;;;;;7364934;19;20362;-63
2022/06/06 13:02:25;;;;;;;2.88;1.35;;;22.80;1.00;;;;;;7366303;19;20006;-63
2022/06/06 13:05:12;;;;;;;2.47;1.52;;;22.60;1.00;;;;;;7358512;19;20111;-63
2022/06/06 13:08:20;;;;;;;2.15;1.45;;;22.10;1.00;;;;;;7365741;19;20362;-63
2022/06/06 13:11:10;;;;;;;2.17;1.70;;;21.90;1.00;;;;;;7362815;19;20073;-63
2022/06/06 13:13:56;;;;;;;3.70;1.45;;;21.80;1.00;;;;;;7360657;19;20013;-63
2022/06/06 13:16:38;;;;;;;4.60;2.00;;;22.10;1.00;;;;;;7361783;19;20526;-63
2022/06/06 13:19:28;;;;;;;5.43;2.10;;;21.80;1.00;;;;;;7364313;19;20010;-63
2022/06/06 13:22:06;;;;;;;2.30;1.70;;;21.80;1.00;;;;;;7364654;19;20078;-62
2022/06/06 13:25:03;;;;;;;2.33;1.50;;;21.60;1.00;;;;;;7358541;19;20010;-64
2022/06/06 13:27:35;;;;;;;2.03;1.33;;;21.70;1.00;;;;;;7366375;19;20014;-63
2022/06/06 13:30:21;;;;;;;2.78;1.67;;;21.60;1.00;;;;;;7386428;19;20713;-63
2022/06/06 13:33:34;;;;;;;3.75;1.90;;;21.70;1.00;;;;;;7255763;19;2004276;-63
2022/06/06 13:36:16;;;;;;;2.47;1.50;;;21.90;1.00;;;;;;7382299;19;20022;-63
2022/06/06 13:39:00;;;;;;;3.85;1.20;;;21.70;1.00;;;;;;7363576;19;20044;-63
2022/06/06 13:41:45;;;;;;;5.13;1.40;;;21.50;1.00;;;;;;7364355;19;20045;-62
2022/06/06 13:44:39;;;;;;;2.90;1.60;;;22.00;1.00;;;;;;7356496;19;20115;-64
2022/06/06 13:47:21;;;;;;;2.38;1.33;;;22.20;1.00;;;;;;7359412;19;20387;-63
2022/06/06 13:50:02;;;;;;;2.40;1.33;;;22.10;1.00;;;;;;7362711;19;20094;-63
2022/06/06 13:53:09;;;;;;;1.77;1.30;;;22.10;1.00;;;;;;7363155;19;20052;-63
2022/06/06 13:55:42;;;;;;;3.92;1.38;;;21.80;1.00;;;;;;7356216;19;20073;-62
2022/06/06 13:58:39;;;;;;;2.45;1.55;;;22.20;1.00;;;;;;7363626;19;20036;-63
2022/06/06 14:01:27;;;;;;;3.55;2.25;;;22.10;1.00;;;;;;7363310;19;20010;-64
2022/06/06 14:04:16;;;;;;;1.55;1.45;;;22.00;1.00;;;;;;7359856;19;20010;-63
2022/06/06 14:07:06;;;;;;;2.38;1.58;;;22.10;1.00;;;;;;7361592;19;20006;-62
2022/06/06 14:09:42;;;;;;;1.95;1.60;;;22.00;1.00;;;;;;7363199;19;20010;-63
2022/06/06 14:12:31;;;;;;;3.85;1.40;;;21.90;1.00;;;;;;7362567;19;20018;-63
2022/06/06 14:15:05;;;;;;;1.30;1.17;;;21.80;1.00;;;;;;7375467;19;20022;-63
2022/06/06 14:17:39;;;;;;;3.25;1.48;;;21.90;1.00;;;;;;7362709;19;20015;-63
2022/06/06 14:20:17;;;;;;;;;;;21.80;1.00;;;;;;7363414;19;20374;-64
2022/06/06 14:22:47;;;;;;;5.00;1.88;;;21.80;1.00;;;;;;7360295;19;20331;-63
2022/06/06 14:25:20;;;;;;;3.65;1.70;;;21.70;1.00;;;;;;7359178;19;20007;-64
2022/06/06 14:27:50;;;;;;;2.75;1.60;;;21.80;1.00;;;;;;7363682;19;20105;-63
2022/06/06 14:30:32;;;;;;;3.85;1.80;;;21.80;1.00;;;;;;7363354;19;20021;-63
2022/06/06 14:33:05;;;;;;;3.08;1.60;;;21.90;1.00;;;;;;7376668;19;20018;-62
2022/06/06 14:35:38;;;;;;;2.95;1.73;;;21.90;1.00;;;;;;7358106;19;20018;-63
2022/06/06 14:38:23;;;;;;;1.80;1.45;;;22.00;1.00;;;;;;7363265;19;20494;-64
2022/06/06 14:41:00;;;;;;;1.83;1.40;;;22.20;1.00;;;;;;7363542;19;20010;-63
2022/06/06 14:43:34;;;;;;;4.20;1.60;;;22.20;1.00;;;;;;7358535;19;20028;-63
2022/06/06 14:46:04;;;;;;;;;;;22.30;1.00;;;;;;7360046;19;20585;-63